createdAt,value
2022-08-26T00:00:41.537Z,20.40
2022-08-26T00:01:44.817Z,16.50
2022-08-26T00:02:41.531Z,18.10
2022-08-26T00:03:41.560Z,16.80
2022-08-26T00:04:41.518Z,16.50
2022-08-26T00:05:41.510Z,15.80
2022-08-26T00:06:42.584Z,14.50
2022-08-26T00:07:41.516Z,13.70
2022-08-26T00:08:41.491Z,19.70
2022-08-26T00:09:41.477Z,16.10
2022-08-26T00:10:42.515Z,14.70
2022-08-26T00:11:41.490Z,16.30
2022-08-26T00:12:41.457Z,14.10
2022-08-26T00:13:41.448Z,15.10
2022-08-26T00:14:42.442Z,15.10
2022-08-26T00:15:41.447Z,14.50
2022-08-26T00:16:47.128Z,15.70
2022-08-26T00:17:42.418Z,17.90
2022-08-26T00:18:41.407Z,14.00
2022-08-26T00:19:41.407Z,14.30
2022-08-26T00:20:41.394Z,17.50
2022-08-26T00:21:41.411Z,13.10
2022-08-26T00:22:41.379Z,14.30
2022-08-26T00:23:41.368Z,17.00
2022-08-26T00:24:41.363Z,16.60
2022-08-26T00:25:42.469Z,18.40
2022-08-26T00:26:41.592Z,18.90
2022-08-26T00:27:41.337Z,19.60
2022-08-26T00:28:41.334Z,15.80
2022-08-26T00:29:41.323Z,19.80
2022-08-26T00:30:41.319Z,13.90
2022-08-26T00:31:41.346Z,18.20
2022-08-26T00:32:41.300Z,15.60
2022-08-26T00:33:41.294Z,18.30
2022-08-26T00:34:41.287Z,15.40
2022-08-26T00:35:41.279Z,16.20
2022-08-26T00:36:41.297Z,19.40
2022-08-26T00:37:41.262Z,20.70
2022-08-26T00:38:41.257Z,19.40
2022-08-26T00:39:41.243Z,21.90
2022-08-26T00:40:41.234Z,18.20
2022-08-26T00:41:41.256Z,16.70
2022-08-26T00:42:41.224Z,16.80
2022-08-26T00:43:46.167Z,17.30
2022-08-26T00:44:42.202Z,16.80
2022-08-26T00:45:41.222Z,16.60
2022-08-26T00:46:46.866Z,21.50
2022-08-26T00:47:42.183Z,20.60
2022-08-26T00:48:41.178Z,18.40
2022-08-26T00:49:41.167Z,18.60
2022-08-26T00:50:41.161Z,17.00
2022-08-26T00:51:41.176Z,16.90
2022-08-26T00:52:41.151Z,18.10
2022-08-26T00:53:41.514Z,16.10
2022-08-26T00:54:42.284Z,14.90
2022-08-26T00:55:41.126Z,20.60
2022-08-26T00:56:41.142Z,13.50
2022-08-26T00:57:41.114Z,16.10
2022-08-26T00:58:41.104Z,14.70
2022-08-26T00:59:41.255Z,18.80
2022-08-26T01:00:41.131Z,16.30
2022-08-26T01:01:41.108Z,16.30
2022-08-26T01:02:41.108Z,16.70
2022-08-26T01:03:42.068Z,17.90
2022-08-26T01:04:41.057Z,18.10
2022-08-26T01:05:41.047Z,14.30
2022-08-26T01:06:41.069Z,15.60
2022-08-26T01:07:41.043Z,19.10
2022-08-26T01:08:41.029Z,16.60
2022-08-26T01:09:41.024Z,17.80
2022-08-26T01:10:41.011Z,18.60
2022-08-26T01:11:41.030Z,20.50
2022-08-26T01:12:40.996Z,18.30
2022-08-26T01:13:40.986Z,18.50
2022-08-26T01:14:40.980Z,17.00
2022-08-26T01:15:41.965Z,16.80
2022-08-26T01:16:42.321Z,18.40
2022-08-26T01:17:40.954Z,17.30
2022-08-26T01:18:40.950Z,16.90
2022-08-26T01:19:40.940Z,15.90
2022-08-26T01:20:40.927Z,22.60
2022-08-26T01:21:41.295Z,23.40
2022-08-26T01:22:40.916Z,16.80
2022-08-26T01:23:40.912Z,21.40
2022-08-26T01:24:40.901Z,18.10
2022-08-26T01:25:40.891Z,22.30
2022-08-26T01:26:40.909Z,20.30
2022-08-26T01:27:40.878Z,16.90
2022-08-26T01:28:40.870Z,16.00
2022-08-26T01:29:40.866Z,19.10
2022-08-26T01:30:40.861Z,18.60
2022-08-26T01:31:40.931Z,19.30
2022-08-26T01:32:40.847Z,19.60
2022-08-26T01:33:42.259Z,18.80
2022-08-26T01:34:40.833Z,19.90
2022-08-26T01:35:40.823Z,18.10
2022-08-26T01:36:40.840Z,16.70
2022-08-26T01:37:40.805Z,16.40
2022-08-26T01:38:40.800Z,21.10
2022-08-26T01:39:40.799Z,18.40
2022-08-26T01:40:40.782Z,18.20
2022-08-26T01:41:40.804Z,17.40
2022-08-26T01:42:40.768Z,18.70
2022-08-26T01:43:40.757Z,20.40
2022-08-26T01:44:40.750Z,22.80
2022-08-26T01:45:40.776Z,17.80
2022-08-26T01:46:40.760Z,16.80
2022-08-26T01:47:40.728Z,19.20
2022-08-26T01:48:40.717Z,18.50
2022-08-26T01:49:40.708Z,15.90
2022-08-26T01:50:40.701Z,17.10
2022-08-26T01:51:40.720Z,16.80
2022-08-26T01:52:40.688Z,16.30
2022-08-26T01:53:41.692Z,14.50
2022-08-26T01:54:40.674Z,20.40
2022-08-26T01:55:40.665Z,18.80
2022-08-26T01:56:40.683Z,20.60
2022-08-26T01:57:40.648Z,21.70
2022-08-26T01:58:40.643Z,19.30
2022-08-26T01:59:40.633Z,17.30
2022-08-26T02:00:40.638Z,19.30
2022-08-26T02:01:40.642Z,17.90
2022-08-26T02:02:40.612Z,20.10
2022-08-26T02:03:42.292Z,19.90
2022-08-26T02:04:40.657Z,16.40
2022-08-26T02:05:40.584Z,17.80
2022-08-26T02:06:40.591Z,16.10
2022-08-26T02:07:41.568Z,19.20
2022-08-26T02:08:40.557Z,20.40
2022-08-26T02:09:41.318Z,20.90
2022-08-26T02:10:40.544Z,20.60
2022-08-26T02:11:40.569Z,19.60
2022-08-26T02:12:40.528Z,17.80
2022-08-26T02:13:40.522Z,15.00
2022-08-26T02:14:42.342Z,18.20
2022-08-26T02:15:40.510Z,15.90
2022-08-26T02:16:42.339Z,19.80
2022-08-26T02:17:40.515Z,18.40
2022-08-26T02:18:40.482Z,17.60
2022-08-26T02:19:40.471Z,19.80
2022-08-26T02:20:40.464Z,18.10
2022-08-26T02:21:40.453Z,20.00
2022-08-26T02:22:40.475Z,16.40
2022-08-26T02:23:40.445Z,18.00
2022-08-26T02:24:40.433Z,16.30
2022-08-26T02:25:40.427Z,18.00
2022-08-26T02:26:40.418Z,19.00
2022-08-26T02:27:40.438Z,17.70
2022-08-26T02:28:40.400Z,17.90
2022-08-26T02:29:40.393Z,18.40
2022-08-26T02:30:40.387Z,18.90
2022-08-26T02:31:40.415Z,19.60
2022-08-26T02:32:41.283Z,18.20
2022-08-26T02:33:43.111Z,20.90
2022-08-26T02:34:40.357Z,17.80
2022-08-26T02:35:40.351Z,18.10
2022-08-26T02:36:40.342Z,24.30
2022-08-26T02:37:41.877Z,16.80
2022-08-26T02:38:40.327Z,18.60
2022-08-26T02:39:40.314Z,19.20
2022-08-26T02:40:41.316Z,21.10
2022-08-26T02:41:45.110Z,19.80
2022-08-26T02:42:41.319Z,18.40
2022-08-26T02:43:40.289Z,18.70
2022-08-26T02:44:40.280Z,20.40
2022-08-26T02:45:40.280Z,22.20
2022-08-26T02:46:40.296Z,22.40
2022-08-26T02:47:40.284Z,19.30
2022-08-26T02:48:40.249Z,19.40
2022-08-26T02:49:40.242Z,20.90
2022-08-26T02:50:40.236Z,18.70
2022-08-26T02:51:40.227Z,17.80
2022-08-26T02:52:40.240Z,22.80
2022-08-26T02:53:40.212Z,22.80
2022-08-26T02:54:40.208Z,20.30
2022-08-26T02:55:40.194Z,20.60
2022-08-26T02:56:40.185Z,20.90
2022-08-26T02:57:40.203Z,20.80
2022-08-26T02:58:40.168Z,20.60
2022-08-26T02:59:40.161Z,21.80
2022-08-26T03:00:53.163Z,20.70
2022-08-26T03:01:41.249Z,18.90
2022-08-26T03:02:40.167Z,25.00
2022-08-26T03:03:40.132Z,20.70
2022-08-26T03:04:40.127Z,18.80
2022-08-26T03:05:40.116Z,19.10
2022-08-26T03:06:40.684Z,22.30
2022-08-26T03:07:40.125Z,24.10
2022-08-26T03:08:40.095Z,19.50
2022-08-26T03:09:40.094Z,22.70
2022-08-26T03:10:40.078Z,25.30
2022-08-26T03:11:40.070Z,20.90
2022-08-26T03:12:40.081Z,21.70
2022-08-26T03:13:40.052Z,20.40
2022-08-26T03:14:40.043Z,18.00
2022-08-26T03:15:40.032Z,23.00
2022-08-26T03:16:40.024Z,19.60
2022-08-26T03:17:40.042Z,21.20
2022-08-26T03:18:40.006Z,18.60
2022-08-26T03:19:39.991Z,17.20
2022-08-26T03:20:41.057Z,20.90
2022-08-26T03:21:39.989Z,19.20
2022-08-26T03:22:40.010Z,20.50
2022-08-26T03:23:39.976Z,21.10
2022-08-26T03:24:39.965Z,18.90
2022-08-26T03:25:39.955Z,20.60
2022-08-26T03:26:39.947Z,19.80
2022-08-26T03:27:40.967Z,19.90
2022-08-26T03:28:39.939Z,19.90
2022-08-26T03:29:39.931Z,19.20
2022-08-26T03:30:39.918Z,19.10
2022-08-26T03:31:40.956Z,21.50
2022-08-26T03:32:39.937Z,21.00
2022-08-26T03:33:39.896Z,23.00
2022-08-26T03:34:39.890Z,19.30
2022-08-26T03:35:39.880Z,21.50
2022-08-26T03:36:39.872Z,21.60
2022-08-26T03:37:39.890Z,20.40
2022-08-26T03:38:39.853Z,21.50
2022-08-26T03:39:40.851Z,21.80
2022-08-26T03:40:39.950Z,20.20
2022-08-26T03:41:39.830Z,19.40
2022-08-26T03:42:39.853Z,21.50
2022-08-26T03:43:39.816Z,20.60
2022-08-26T03:44:42.038Z,20.80
2022-08-26T03:45:39.804Z,21.60
2022-08-26T03:46:39.878Z,19.70
2022-08-26T03:47:39.812Z,20.80
2022-08-26T03:48:39.776Z,24.80
2022-08-26T03:49:39.777Z,19.00
2022-08-26T03:50:39.788Z,21.20
2022-08-26T03:51:39.757Z,20.80
2022-08-26T03:52:43.669Z,19.40
2022-08-26T03:53:40.739Z,20.90
2022-08-26T03:54:39.731Z,20.40
2022-08-26T03:55:39.727Z,23.30
2022-08-26T03:56:40.114Z,23.80
2022-08-26T03:57:39.732Z,18.40
2022-08-26T03:58:39.704Z,22.50
2022-08-26T03:59:41.354Z,24.30
2022-08-26T04:00:39.684Z,22.60
2022-08-26T04:01:39.700Z,20.70
2022-08-26T04:02:39.955Z,24.70
2022-08-26T04:03:39.661Z,22.20
2022-08-26T04:04:39.658Z,22.10
2022-08-26T04:05:39.645Z,23.00
2022-08-26T04:06:39.643Z,21.40
2022-08-26T04:07:39.660Z,23.30
2022-08-26T04:08:39.627Z,20.90
2022-08-26T04:09:39.621Z,21.00
2022-08-26T04:10:39.609Z,24.40
2022-08-26T04:11:39.690Z,23.10
2022-08-26T04:12:39.583Z,20.40
2022-08-26T04:13:40.613Z,24.70
2022-08-26T04:14:39.579Z,22.00
2022-08-26T04:15:39.572Z,23.50
2022-08-26T04:16:39.567Z,23.80
2022-08-26T04:17:39.555Z,22.80
2022-08-26T04:18:46.534Z,27.60
2022-08-26T04:19:40.540Z,25.70
2022-08-26T04:20:39.535Z,26.10
2022-08-26T04:21:39.527Z,26.40
2022-08-26T04:22:39.527Z,23.20
2022-08-26T04:23:47.476Z,20.30
2022-08-26T04:24:40.501Z,29.40
2022-08-26T04:25:39.498Z,22.30
2022-08-26T04:26:42.884Z,24.40
2022-08-26T04:27:39.475Z,23.50
2022-08-26T04:28:39.497Z,23.20
2022-08-26T04:29:39.464Z,23.30
2022-08-26T04:30:39.449Z,21.50
2022-08-26T04:31:39.491Z,20.00
2022-08-26T04:32:39.437Z,20.70
2022-08-26T04:33:41.815Z,21.60
2022-08-26T04:34:39.417Z,24.50
2022-08-26T04:35:39.413Z,23.20
2022-08-26T04:36:39.404Z,23.40
2022-08-26T04:37:39.397Z,20.90
2022-08-26T04:38:39.417Z,22.40
2022-08-26T04:39:39.378Z,21.00
2022-08-26T04:40:39.370Z,22.90
2022-08-26T04:41:40.362Z,23.30
2022-08-26T04:42:39.356Z,22.90
2022-08-26T04:43:39.372Z,23.90
2022-08-26T04:44:39.340Z,22.90
2022-08-26T04:45:39.335Z,25.50
2022-08-26T04:46:39.843Z,25.50
2022-08-26T04:47:39.316Z,23.60
2022-08-26T04:48:39.336Z,24.10
2022-08-26T04:49:39.305Z,25.90
2022-08-26T04:50:39.297Z,20.80
2022-08-26T04:51:39.294Z,22.40
2022-08-26T04:52:39.272Z,23.20
2022-08-26T04:53:39.294Z,22.20
2022-08-26T04:54:39.261Z,20.90
2022-08-26T04:55:42.748Z,23.90
2022-08-26T04:56:40.249Z,24.80
2022-08-26T04:57:39.236Z,22.10
2022-08-26T04:58:39.254Z,20.90
2022-08-26T04:59:39.623Z,19.70
2022-08-26T05:00:40.213Z,24.00
2022-08-26T05:01:39.691Z,22.80
2022-08-26T05:02:39.224Z,19.40
2022-08-26T05:03:39.226Z,24.00
2022-08-26T05:04:39.186Z,22.90
2022-08-26T05:05:39.171Z,22.30
2022-08-26T05:06:39.164Z,21.10
2022-08-26T05:07:39.183Z,22.20
2022-08-26T05:08:39.151Z,27.90
2022-08-26T05:09:39.143Z,19.90
2022-08-26T05:10:39.138Z,22.70
2022-08-26T05:11:39.130Z,21.90
2022-08-26T05:12:39.149Z,21.60
2022-08-26T05:13:39.115Z,21.40
2022-08-26T05:14:39.109Z,24.60
2022-08-26T05:15:39.134Z,17.50
2022-08-26T05:16:40.463Z,20.60
2022-08-26T05:17:39.110Z,23.10
2022-08-26T05:18:39.088Z,17.10
2022-08-26T05:19:43.001Z,19.30
2022-08-26T05:20:39.058Z,20.10
2022-08-26T05:21:39.054Z,20.10
2022-08-26T05:22:39.048Z,24.40
2022-08-26T05:23:39.061Z,20.50
2022-08-26T05:24:39.028Z,19.40
2022-08-26T05:25:39.020Z,17.90
2022-08-26T05:26:39.011Z,24.60
2022-08-26T05:27:39.005Z,19.90
2022-08-26T05:28:39.019Z,21.20
2022-08-26T05:29:38.990Z,23.30
2022-08-26T05:30:38.980Z,21.70
2022-08-26T05:31:38.974Z,23.50
2022-08-26T05:32:38.969Z,17.70
2022-08-26T05:33:41.343Z,21.40
2022-08-26T05:34:38.946Z,16.80
2022-08-26T05:35:38.943Z,20.40
2022-08-26T05:36:38.935Z,18.60
2022-08-26T05:37:38.956Z,21.10
2022-08-26T05:38:38.919Z,21.20
2022-08-26T05:39:38.906Z,21.50
2022-08-26T05:40:38.982Z,16.70
2022-08-26T05:41:38.897Z,18.70
2022-08-26T05:42:38.919Z,21.40
2022-08-26T05:43:38.876Z,18.60
2022-08-26T05:44:55.819Z,19.60
2022-08-26T05:45:44.880Z,21.30
2022-08-26T05:46:40.978Z,19.40
2022-08-26T05:47:38.877Z,20.00
2022-08-26T05:48:38.837Z,20.50
2022-08-26T05:49:39.828Z,24.50
2022-08-26T05:50:39.824Z,17.50
2022-08-26T05:51:38.817Z,16.30
2022-08-26T05:52:38.830Z,20.40
2022-08-26T05:53:38.806Z,20.80
2022-08-26T05:54:38.792Z,21.30
2022-08-26T05:55:38.792Z,19.60
2022-08-26T05:56:38.790Z,20.70
2022-08-26T05:57:40.548Z,20.60
2022-08-26T05:58:39.766Z,19.90
2022-08-26T05:59:38.761Z,21.40
2022-08-26T06:00:38.755Z,23.70
2022-08-26T06:01:38.818Z,23.90
2022-08-26T06:02:38.862Z,20.50
2022-08-26T06:03:38.727Z,20.80
2022-08-26T06:04:38.722Z,18.70
2022-08-26T06:05:39.165Z,20.90
2022-08-26T06:06:38.713Z,22.40
2022-08-26T06:07:38.971Z,21.10
2022-08-26T06:08:38.698Z,24.10
2022-08-26T06:09:38.694Z,22.70
2022-08-26T06:10:38.683Z,23.60
2022-08-26T06:11:38.672Z,21.20
2022-08-26T06:12:38.701Z,22.10
2022-08-26T06:13:38.660Z,20.80
2022-08-26T06:14:38.647Z,18.50
2022-08-26T06:15:38.681Z,19.10
2022-08-26T06:16:38.659Z,21.00
2022-08-26T06:17:38.630Z,20.70
2022-08-26T06:18:38.646Z,25.90
2022-08-26T06:19:38.622Z,21.00
2022-08-26T06:20:38.609Z,18.80
2022-08-26T06:21:38.599Z,19.10
2022-08-26T06:22:38.594Z,21.30
2022-08-26T06:23:38.615Z,21.20
2022-08-26T06:24:38.575Z,21.40
2022-08-26T06:25:38.566Z,21.50
2022-08-26T06:26:38.559Z,15.60
2022-08-26T06:27:38.548Z,19.10
2022-08-26T06:28:38.568Z,19.50
2022-08-26T06:29:38.539Z,15.10
2022-08-26T06:30:38.531Z,18.40
2022-08-26T06:31:40.020Z,15.70
2022-08-26T06:32:38.514Z,16.40
2022-08-26T06:33:38.536Z,19.50
2022-08-26T06:34:38.503Z,20.80
2022-08-26T06:35:38.493Z,15.80
2022-08-26T06:36:38.483Z,20.20
2022-08-26T06:37:38.474Z,18.50
2022-08-26T06:38:38.496Z,18.30
2022-08-26T06:39:41.076Z,19.00
2022-08-26T06:40:38.456Z,19.80
2022-08-26T06:41:43.142Z,24.20
2022-08-26T06:42:39.440Z,20.90
2022-08-26T06:43:38.463Z,20.10
2022-08-26T06:44:38.435Z,17.60
2022-08-26T06:45:38.417Z,19.80
2022-08-26T06:46:38.470Z,19.60
2022-08-26T06:47:38.407Z,18.10
2022-08-26T06:48:38.425Z,17.70
2022-08-26T06:49:38.392Z,17.40
2022-08-26T06:50:38.383Z,19.90
2022-08-26T06:51:38.377Z,19.40
2022-08-26T06:52:38.372Z,21.00
2022-08-26T06:53:38.390Z,17.00
2022-08-26T06:54:38.849Z,16.60
2022-08-26T06:55:38.347Z,20.10
2022-08-26T06:56:38.341Z,20.20
2022-08-26T06:57:41.061Z,18.80
2022-08-26T06:58:38.352Z,16.80
2022-08-26T06:59:38.320Z,17.50
2022-08-26T07:00:38.324Z,17.20
2022-08-26T07:01:38.341Z,17.40
2022-08-26T07:02:38.365Z,18.80
2022-08-26T07:03:39.786Z,16.20
2022-08-26T07:04:38.296Z,16.20
2022-08-26T07:05:38.288Z,14.80
2022-08-26T07:06:39.056Z,16.60
2022-08-26T07:07:38.271Z,20.40
2022-08-26T07:08:38.301Z,18.00
2022-08-26T07:09:38.259Z,17.30
2022-08-26T07:10:38.246Z,14.40
2022-08-26T07:11:38.247Z,14.70
2022-08-26T07:12:38.238Z,16.20
2022-08-26T07:13:38.260Z,17.40
2022-08-26T07:14:38.312Z,13.80
2022-08-26T07:15:38.295Z,15.10
2022-08-26T07:16:38.199Z,22.90
2022-08-26T07:17:39.205Z,14.80
2022-08-26T07:18:38.228Z,13.60
2022-08-26T07:19:38.191Z,13.40
2022-08-26T07:20:38.183Z,13.60
2022-08-26T07:21:38.173Z,19.70
2022-08-26T07:22:38.172Z,16.50
2022-08-26T07:23:38.201Z,18.90
2022-08-26T07:24:38.158Z,18.00
2022-08-26T07:25:38.155Z,17.50
2022-08-26T07:26:38.143Z,11.70
2022-08-26T07:27:38.137Z,15.30
2022-08-26T07:28:38.132Z,16.70
2022-08-26T07:29:38.151Z,16.90
2022-08-26T07:30:38.196Z,16.40
2022-08-26T07:31:39.660Z,17.50
2022-08-26T07:32:38.116Z,16.90
2022-08-26T07:33:38.102Z,15.90
2022-08-26T07:34:38.115Z,13.80
2022-08-26T07:35:38.089Z,19.80
2022-08-26T07:36:38.079Z,18.60
2022-08-26T07:37:39.260Z,16.70
2022-08-26T07:38:38.071Z,16.40
2022-08-26T07:39:38.084Z,16.30
2022-08-26T07:40:38.056Z,19.10
2022-08-26T07:41:38.049Z,22.40
2022-08-26T07:42:38.045Z,15.90
2022-08-26T07:43:38.037Z,17.20
2022-08-26T07:44:38.054Z,16.00
2022-08-26T07:45:38.024Z,19.80
2022-08-26T07:46:38.022Z,15.10
2022-08-26T07:47:38.020Z,20.60
2022-08-26T07:48:38.013Z,12.90
2022-08-26T07:49:38.121Z,17.30
2022-08-26T07:50:50.405Z,19.10
2022-08-26T07:51:38.986Z,18.60
2022-08-26T07:52:37.984Z,16.90
2022-08-26T07:53:38.007Z,19.40
2022-08-26T07:54:37.968Z,22.00
2022-08-26T07:55:37.971Z,22.40
2022-08-26T07:56:37.962Z,18.60
2022-08-26T07:57:37.953Z,22.10
2022-08-26T07:58:37.973Z,19.20
2022-08-26T07:59:37.941Z,17.40
2022-08-26T08:00:37.930Z,17.80
2022-08-26T08:01:38.987Z,23.80
2022-08-26T08:02:37.926Z,20.30
2022-08-26T08:03:37.947Z,18.40
2022-08-26T08:04:37.938Z,21.00
2022-08-26T08:05:37.948Z,20.70
2022-08-26T08:06:37.900Z,19.20
2022-08-26T08:07:44.338Z,20.60
2022-08-26T08:08:38.909Z,18.50
2022-08-26T08:09:37.879Z,20.70
2022-08-26T08:10:37.872Z,23.20
2022-08-26T08:11:37.868Z,22.00
2022-08-26T08:12:37.861Z,18.90
2022-08-26T08:13:37.886Z,19.00
2022-08-26T08:14:37.882Z,19.70
2022-08-26T08:15:37.866Z,22.90
2022-08-26T08:16:41.521Z,20.00
2022-08-26T08:17:39.834Z,17.80
2022-08-26T08:18:37.853Z,21.00
2022-08-26T08:19:39.075Z,23.50
2022-08-26T08:20:37.822Z,17.80
2022-08-26T08:21:37.809Z,20.40
2022-08-26T08:22:37.800Z,19.70
2022-08-26T08:23:37.826Z,17.90
2022-08-26T08:24:37.793Z,19.50
2022-08-26T08:25:37.781Z,19.30
2022-08-26T08:26:37.775Z,22.80
2022-08-26T08:27:37.773Z,24.50
2022-08-26T08:28:37.790Z,20.80
2022-08-26T08:29:37.758Z,23.30
2022-08-26T08:30:37.762Z,19.10
2022-08-26T08:31:56.548Z,24.10
2022-08-26T08:32:39.737Z,17.70
2022-08-26T08:33:37.754Z,18.40
2022-08-26T08:34:37.792Z,21.20
2022-08-26T08:35:37.722Z,21.40
2022-08-26T08:36:37.736Z,25.10
2022-08-26T08:37:37.709Z,22.00
2022-08-26T08:38:37.726Z,24.00
2022-08-26T08:39:37.694Z,20.20
2022-08-26T08:40:37.742Z,24.20
2022-08-26T08:41:37.685Z,24.30
2022-08-26T08:42:38.787Z,20.20
2022-08-26T08:43:37.898Z,21.90
2022-08-26T08:44:37.663Z,19.30
2022-08-26T08:45:37.662Z,23.20
2022-08-26T08:46:37.648Z,19.80
2022-08-26T08:47:37.634Z,20.80
2022-08-26T08:48:37.650Z,21.40
2022-08-26T08:49:37.623Z,24.10
2022-08-26T08:50:37.621Z,25.20
2022-08-26T08:51:37.610Z,24.40
2022-08-26T08:52:37.598Z,17.90
2022-08-26T08:53:37.618Z,20.70
2022-08-26T08:54:37.587Z,23.10
2022-08-26T08:55:37.578Z,22.70
2022-08-26T08:56:37.582Z,18.30
2022-08-26T08:57:37.574Z,21.60
2022-08-26T08:58:37.591Z,23.00
2022-08-26T08:59:38.424Z,17.50
2022-08-26T09:00:39.870Z,17.90
2022-08-26T09:01:38.568Z,20.40
2022-08-26T09:02:37.581Z,18.20
2022-08-26T09:03:38.561Z,23.50
2022-08-26T09:04:37.521Z,16.90
2022-08-26T09:05:37.518Z,19.90
2022-08-26T09:06:37.510Z,20.60
2022-08-26T09:07:37.619Z,21.10
2022-08-26T09:08:37.516Z,19.60
2022-08-26T09:09:37.485Z,23.70
2022-08-26T09:10:37.480Z,25.90
2022-08-26T09:11:37.475Z,20.40
2022-08-26T09:12:37.464Z,23.30
2022-08-26T09:13:37.465Z,19.10
2022-08-26T09:14:37.476Z,15.70
2022-08-26T09:15:37.443Z,21.50
2022-08-26T09:16:37.517Z,20.00
2022-08-26T09:17:37.450Z,14.90
2022-08-26T09:18:37.424Z,24.20
2022-08-26T09:19:37.445Z,20.10
2022-08-26T09:20:37.404Z,16.30
2022-08-26T09:21:37.403Z,21.30
2022-08-26T09:22:37.399Z,21.50
2022-08-26T09:23:37.390Z,20.00
2022-08-26T09:24:41.378Z,25.10
2022-08-26T09:25:38.376Z,18.80
2022-08-26T09:26:37.368Z,26.20
2022-08-26T09:27:37.590Z,15.60
2022-08-26T09:28:37.356Z,18.10
2022-08-26T09:29:37.382Z,18.30
2022-08-26T09:30:37.378Z,18.70
2022-08-26T09:31:37.336Z,22.40
2022-08-26T09:32:37.348Z,16.30
2022-08-26T09:33:37.320Z,17.70
2022-08-26T09:34:37.350Z,17.80
2022-08-26T09:35:37.309Z,18.90
2022-08-26T09:36:41.287Z,17.20
2022-08-26T09:37:38.332Z,20.50
2022-08-26T09:38:38.293Z,17.70
2022-08-26T09:39:37.865Z,15.10
2022-08-26T09:40:37.314Z,16.00
2022-08-26T09:41:37.271Z,18.40
2022-08-26T09:42:37.269Z,22.10
2022-08-26T09:43:37.260Z,15.00
2022-08-26T09:44:37.270Z,21.00
2022-08-26T09:45:37.264Z,21.60
2022-08-26T09:46:37.278Z,13.60
2022-08-26T09:47:38.220Z,19.80
2022-08-26T09:48:37.219Z,17.30
2022-08-26T09:49:37.233Z,17.30
2022-08-26T09:50:37.209Z,19.50
2022-08-26T09:51:37.194Z,17.90
2022-08-26T09:52:37.192Z,24.40
2022-08-26T09:53:37.185Z,16.50
2022-08-26T09:54:37.206Z,16.20
2022-08-26T09:55:37.173Z,14.30
2022-08-26T09:56:37.172Z,13.20
2022-08-26T09:57:37.160Z,17.60
2022-08-26T09:58:37.846Z,15.80
2022-08-26T09:59:37.205Z,13.40
2022-08-26T10:00:38.597Z,19.50
2022-08-26T10:01:37.185Z,17.30
2022-08-26T10:02:37.126Z,15.80
2022-08-26T10:03:37.121Z,16.30
2022-08-26T10:04:37.180Z,17.60
2022-08-26T10:05:37.110Z,15.80
2022-08-26T10:06:37.094Z,18.30
2022-08-26T10:07:37.088Z,16.30
2022-08-26T10:08:37.075Z,12.50
2022-08-26T10:09:38.104Z,16.90
2022-08-26T10:10:37.077Z,14.60
2022-08-26T10:11:37.063Z,13.60
2022-08-26T10:12:37.059Z,12.70
2022-08-26T10:13:37.052Z,16.80
2022-08-26T10:14:37.085Z,15.30
2022-08-26T10:15:37.056Z,10.50
2022-08-26T10:16:37.048Z,12.50
2022-08-26T10:17:37.029Z,18.40
2022-08-26T10:18:37.014Z,11.10
2022-08-26T10:19:56.074Z,11.70
2022-08-26T10:20:38.023Z,14.30
2022-08-26T10:21:36.991Z,8.50
2022-08-26T10:22:36.983Z,11.50
2022-08-26T10:23:37.028Z,11.20
2022-08-26T10:24:36.967Z,10.70
2022-08-26T10:25:36.995Z,12.10
2022-08-26T10:26:36.959Z,14.00
2022-08-26T10:27:36.952Z,14.20
2022-08-26T10:28:36.939Z,14.40
2022-08-26T10:29:37.260Z,10.80
2022-08-26T10:30:36.928Z,12.10
2022-08-26T10:31:38.212Z,11.10
2022-08-26T10:32:40.806Z,11.50
2022-08-26T10:33:36.910Z,13.70
2022-08-26T10:34:36.923Z,11.60
2022-08-26T10:35:36.893Z,9.90
2022-08-26T10:36:52.289Z,7.50
2022-08-26T10:37:38.874Z,8.90
2022-08-26T10:38:37.609Z,7.30
2022-08-26T10:39:36.893Z,8.50
2022-08-26T10:40:36.909Z,9.50
2022-08-26T10:41:36.851Z,9.20
2022-08-26T10:42:37.564Z,11.40
2022-08-26T10:43:36.836Z,11.80
2022-08-26T10:44:36.850Z,11.00
2022-08-26T10:45:36.863Z,13.30
2022-08-26T10:46:36.808Z,13.20
2022-08-26T10:47:36.808Z,12.20
2022-08-26T10:48:36.790Z,12.30
2022-08-26T10:49:36.823Z,13.10
2022-08-26T10:50:37.396Z,8.80
2022-08-26T10:51:36.770Z,12.10
2022-08-26T10:52:36.764Z,13.50
2022-08-26T10:53:36.760Z,9.30
2022-08-26T10:54:36.785Z,12.80
2022-08-26T10:55:36.772Z,11.90
2022-08-26T10:56:36.734Z,13.40
2022-08-26T10:57:36.742Z,9.70
2022-08-26T10:58:36.723Z,10.70
2022-08-26T10:59:36.825Z,12.90
2022-08-26T11:00:36.733Z,10.50
2022-08-26T11:01:36.723Z,13.00
2022-08-26T11:02:36.689Z,18.20
2022-08-26T11:03:36.685Z,14.90
2022-08-26T11:04:37.186Z,10.70
2022-08-26T11:05:36.671Z,15.70
2022-08-26T11:06:37.144Z,22.00
2022-08-26T11:07:36.650Z,12.40
2022-08-26T11:08:36.661Z,15.40
2022-08-26T11:09:36.665Z,14.00
2022-08-26T11:10:36.633Z,12.10
2022-08-26T11:11:36.625Z,13.60
2022-08-26T11:12:37.358Z,13.00
2022-08-26T11:13:41.156Z,10.40
2022-08-26T11:14:53.283Z,12.80
2022-08-26T11:15:37.590Z,12.40
2022-08-26T11:16:36.632Z,9.20
2022-08-26T11:17:37.583Z,10.30
2022-08-26T11:18:36.569Z,12.50
2022-08-26T11:19:58.806Z,11.60
2022-08-26T11:20:39.233Z,12.40
2022-08-26T11:21:36.551Z,9.90
2022-08-26T11:22:36.545Z,11.10
2022-08-26T11:23:36.531Z,11.70
2022-08-26T11:24:36.560Z,9.00
2022-08-26T11:25:36.527Z,11.20
2022-08-26T11:26:55.264Z,12.60
2022-08-26T11:27:37.509Z,8.30
2022-08-26T11:28:36.506Z,11.10
2022-08-26T11:29:36.518Z,10.10
2022-08-26T11:30:36.489Z,10.60
2022-08-26T11:31:36.500Z,10.10
2022-08-26T11:32:36.497Z,11.00
2022-08-26T11:33:36.469Z,10.40
2022-08-26T11:34:36.484Z,10.30
2022-08-26T11:35:37.429Z,10.30
2022-08-26T11:36:36.438Z,12.60
2022-08-26T11:37:36.432Z,10.80
2022-08-26T11:38:36.430Z,8.70
2022-08-26T11:39:36.823Z,12.90
2022-08-26T11:40:36.437Z,13.70
2022-08-26T11:41:36.407Z,9.80
2022-08-26T11:42:36.400Z,10.30
2022-08-26T11:43:36.392Z,11.40
2022-08-26T11:44:36.408Z,11.20
2022-08-26T11:45:36.404Z,8.00
2022-08-26T11:46:36.369Z,12.70
2022-08-26T11:47:36.356Z,11.10
2022-08-26T11:48:36.356Z,12.50
2022-08-26T11:49:36.373Z,10.60
2022-08-26T11:50:36.332Z,11.70
2022-08-26T11:51:40.412Z,11.70
2022-08-26T11:52:37.323Z,13.40
2022-08-26T11:53:36.320Z,9.80
2022-08-26T11:54:36.345Z,8.10
2022-08-26T11:55:36.303Z,12.60
2022-08-26T11:56:36.296Z,9.10
2022-08-26T11:57:36.289Z,13.00
2022-08-26T11:58:36.280Z,15.90
2022-08-26T12:00:37.265Z,12.50
2022-08-26T12:01:36.264Z,12.50
2022-08-26T12:02:36.252Z,12.30
2022-08-26T12:03:36.405Z,9.40
2022-08-26T12:04:36.355Z,11.00
2022-08-26T12:05:36.232Z,11.80
2022-08-26T12:06:38.919Z,11.50
2022-08-26T12:07:37.212Z,13.00
2022-08-26T12:08:37.207Z,12.80
2022-08-26T12:09:36.226Z,11.70
2022-08-26T12:10:36.193Z,13.20
2022-08-26T12:11:36.187Z,14.20
2022-08-26T12:12:36.295Z,13.30
2022-08-26T12:13:36.172Z,12.10
2022-08-26T12:14:36.189Z,12.90
2022-08-26T12:15:36.159Z,13.90
2022-08-26T12:16:36.212Z,11.90
2022-08-26T12:17:36.143Z,12.50
2022-08-26T12:18:36.133Z,12.90
2022-08-26T12:19:36.158Z,16.40
2022-08-26T12:20:36.122Z,10.60
2022-08-26T12:21:36.117Z,11.80
2022-08-26T12:22:36.134Z,9.20
2022-08-26T12:23:36.423Z,13.00
2022-08-26T12:24:36.119Z,11.30
2022-08-26T12:25:36.370Z,13.70
2022-08-26T12:26:36.073Z,11.90
2022-08-26T12:27:36.068Z,11.90
2022-08-26T12:28:36.064Z,10.00
2022-08-26T12:29:36.080Z,11.10
2022-08-26T12:30:36.047Z,13.40
2022-08-26T12:31:36.117Z,9.70
2022-08-26T12:32:36.032Z,11.30
2022-08-26T12:33:36.028Z,12.60
2022-08-26T12:34:36.040Z,12.60
2022-08-26T12:35:36.013Z,12.80
2022-08-26T12:36:36.009Z,10.40
2022-08-26T12:37:35.995Z,14.00
2022-08-26T12:38:35.988Z,12.30
2022-08-26T12:39:36.003Z,11.20
2022-08-26T12:40:36.025Z,10.10
2022-08-26T12:41:35.967Z,11.10
2022-08-26T12:42:35.962Z,12.50
2022-08-26T12:43:35.949Z,13.40
2022-08-26T12:44:35.974Z,11.20
2022-08-26T12:45:36.002Z,13.60
2022-08-26T12:46:35.936Z,11.00
2022-08-26T12:47:42.632Z,10.30
2022-08-26T12:48:36.910Z,13.20
2022-08-26T12:49:35.938Z,12.10
2022-08-26T12:50:35.903Z,9.10
2022-08-26T12:51:35.890Z,13.50
2022-08-26T12:52:35.894Z,13.30
2022-08-26T12:53:35.881Z,11.10
2022-08-26T12:54:35.897Z,18.00